Time,TemperatureF,DewpointF,PressureIn,WindDirection,WindDirectionDegrees,WindSpeedMPH,WindSpeedGustMPH,Humidity,HourlyPrecipIn,Conditions,Clouds,dailyrainin,SoftwareType,DateUTC
2013-02-13 00:02:00,73.0,-99.9,30.00,SSW,208,7.0,8.0,-999,-99.99,,,-99.99,,2013-02-13 05:02:00,
2013-02-13 00:12:00,73.0,-99.9,30.00,SSW,206,6.0,7.0,-999,-99.99,,,-99.99,,2013-02-13 05:12:00,
2013-02-13 00:22:00,73.0,-99.9,30.00,SSW,206,6.0,7.0,-999,-99.99,,,-99.99,,2013-02-13 05:22:00,
2013-02-13 00:32:00,73.0,-99.9,29.99,SSW,206,7.0,9.0,-999,-99.99,,,-99.99,,2013-02-13 05:32:00,
2013-02-13 00:42:00,73.0,-99.9,29.99,SSW,203,6.0,8.0,-999,-99.99,,,-99.99,,2013-02-13 05:42:00,
2013-02-13 00:52:00,73.0,-99.9,29.99,SSW,208,7.0,9.0,-999,-99.99,,,-99.99,,2013-02-13 05:52:00,
2013-02-13 01:02:00,73.0,-99.9,29.99,SSW,207,6.0,8.0,-999,-99.99,,,-99.99,,2013-02-13 06:02:00,
2013-02-13 01:12:00,72.0,-99.9,29.98,SSW,210,7.0,9.0,-999,-99.99,,,-99.99,,2013-02-13 06:12:00,
2013-02-13 01:22:00,72.0,-99.9,29.98,SSW,206,6.0,8.0,-999,-99.99,,,-99.99,,2013-02-13 06:22:00,
2013-02-13 01:32:00,72.0,-99.9,29.98,SSW,211,8.0,9.0,-999,-99.99,,,-99.99,,2013-02-13 06:32:00,
2013-02-13 01:42:00,72.0,-99.9,29.98,SSW,210,7.0,9.0,-999,-99.99,,,-99.99,,2013-02-13 06:42:00,
2013-02-13 01:52:00,72.0,-99.9,29.98,SSW,210,7.0,9.0,-999,-99.99,,,-99.99,,2013-02-13 06:52:00,
2013-02-13 02:02:00,72.0,-99.9,29.98,SSW,207,7.0,10.0,-999,-99.99,,,-99.99,,2013-02-13 07:02:00,
2013-02-13 02:11:00,72.0,-99.9,29.97,SSW,203,8.0,10.0,-999,-99.99,,,-99.99,,2013-02-13 07:11:00,
2013-02-13 02:22:00,72.0,-99.9,29.97,SSW,201,9.0,11.0,-999,-99.99,,,-99.99,,2013-02-13 07:22:00,
2013-02-13 02:32:00,72.0,-99.9,29.97,SSW,199,9.0,11.0,-999,-99.99,,,-99.99,,2013-02-13 07:32:00,
2013-02-13 02:42:00,72.0,-99.9,29.96,South,191,9.0,10.0,-999,-99.99,,,-99.99,,2013-02-13 07:42:00,
2013-02-13 02:52:00,73.0,-99.9,29.96,South,189,10.0,12.0,-999,-99.99,,,-99.99,,2013-02-13 07:52:00,
2013-02-13 03:01:00,73.0,-99.9,29.96,South,184,11.0,13.0,-999,-99.99,,,-99.99,,2013-02-13 08:01:00,
2013-02-13 03:11:00,73.0,-99.9,29.95,South,179,12.0,14.0,-999,-99.99,,,-99.99,,2013-02-13 08:11:00,
2013-02-13 03:22:00,73.0,-99.9,29.95,South,185,12.0,13.0,-999,-99.99,,,-99.99,,2013-02-13 08:22:00,
2013-02-13 03:32:00,73.0,-99.9,29.95,South,188,10.0,12.0,-999,-99.99,,,-99.99,,2013-02-13 08:32:00,
2013-02-13 03:43:00,73.0,-99.9,29.95,South,191,10.0,13.0,-999,-99.99,,,-99.99,,2013-02-13 08:43:00,
2013-02-13 03:52:00,73.0,-99.9,29.95,South,188,9.0,12.0,-999,-99.99,,,-99.99,,2013-02-13 08:52:00,
2013-02-13 04:02:00,74.0,-99.9,29.95,South,186,13.0,15.0,-999,-99.99,,,-99.99,,2013-02-13 09:02:00,
2013-02-13 04:11:00,74.0,-99.9,29.95,South,189,12.0,15.0,-999,-99.99,,,-99.99,,2013-02-13 09:11:00,
2013-02-13 04:21:00,74.0,-99.9,29.95,South,185,13.0,15.0,-999,-99.99,,,-99.99,,2013-02-13 09:21:00,
2013-02-13 04:32:00,74.0,-99.9,29.96,South,185,14.0,17.0,-999,-99.99,,,-99.99,,2013-02-13 09:32:00,
2013-02-13 04:42:00,74.0,-99.9,29.96,South,188,13.0,17.0,-999,-99.99,,,-99.99,,2013-02-13 09:42:00,
2013-02-13 04:52:00,74.0,-99.9,29.96,South,185,14.0,16.0,-999,-99.99,,,-99.99,,2013-02-13 09:52:00,
2013-02-13 05:01:00,74.0,-99.9,29.96,South,189,12.0,15.0,-999,-99.99,,,-99.99,,2013-02-13 10:01:00,
2013-02-13 05:11:00,74.0,-99.9,29.96,South,185,12.0,15.0,-999,-99.99,,,-99.99,,2013-02-13 10:11:00,
2013-02-13 05:22:00,74.0,-99.9,29.96,South,186,14.0,17.0,-999,-99.99,,,-99.99,,2013-02-13 10:22:00,
2013-02-13 05:32:00,74.0,-99.9,29.96,South,177,17.0,20.0,-999,-99.99,,,-99.99,,2013-02-13 10:32:00,
2013-02-13 05:42:00,74.0,-99.9,29.96,South,182,15.0,17.0,-999,-99.99,,,-99.99,,2013-02-13 10:42:00,
2013-02-13 05:52:00,74.0,-99.9,29.96,South,178,14.0,17.0,-999,-99.99,,,-99.99,,2013-02-13 10:52:00,
2013-02-13 06:01:00,75.0,-99.9,29.96,South,177,15.0,19.0,-999,-99.99,,,-99.99,,2013-02-13 11:01:00,
2013-02-13 06:11:00,75.0,-99.9,29.96,South,178,18.0,22.0,-999,-99.99,,,-99.99,,2013-02-13 11:11:00,
2013-02-13 06:22:00,75.0,-99.9,29.96,South,178,17.0,20.0,-999,-99.99,,,-99.99,,2013-02-13 11:22:00,
2013-02-13 06:32:00,75.0,-99.9,29.96,South,173,17.0,18.0,-999,-99.99,,,-99.99,,2013-02-13 11:32:00,
2013-02-13 06:42:00,75.0,-99.9,29.96,South,178,19.0,21.0,-999,-99.99,,,-99.99,,2013-02-13 11:42:00,
2013-02-13 06:52:00,75.0,-99.9,29.96,South,175,20.0,22.0,-999,-99.99,,,-99.99,,2013-02-13 11:52:00,
2013-02-13 07:02:00,75.0,-99.9,29.96,South,178,20.0,22.0,-999,-99.99,,,-99.99,,2013-02-13 12:02:00,
2013-02-13 07:11:00,75.0,-99.9,29.96,South,177,20.0,22.0,-999,-99.99,,,-99.99,,2013-02-13 12:11:00,
2013-02-13 07:22:00,75.0,-99.9,29.96,South,178,18.0,22.0,-999,-99.99,,,-99.99,,2013-02-13 12:22:00,
2013-02-13 07:32:00,75.0,-99.9,29.96,South,180,17.0,20.0,-999,-99.99,,,-99.99,,2013-02-13 12:32:00,
2013-02-13 07:42:00,75.0,-99.9,29.96,South,177,19.0,23.0,-999,-99.99,,,-99.99,,2013-02-13 12:42:00,
2013-02-13 07:52:00,75.0,-99.9,29.96,South,179,19.0,21.0,-999,-99.99,,,-99.99,,2013-02-13 12:52:00,
2013-02-13 08:02:00,75.0,-99.9,29.96,South,178,19.0,21.0,-999,-99.99,,,-99.99,,2013-02-13 13:02:00,
2013-02-13 08:12:00,75.0,-99.9,29.96,South,175,19.0,23.0,-999,-99.99,,,-99.99,,2013-02-13 13:12:00,
2013-02-13 08:22:00,75.0,-99.9,29.97,South,176,19.0,23.0,-999,-99.99,,,-99.99,,2013-02-13 13:22:00,
2013-02-13 08:32:00,75.0,-99.9,29.97,South,174,19.0,22.0,-999,-99.99,,,-99.99,,2013-02-13 13:32:00,
2013-02-13 08:42:00,75.0,-99.9,29.97,South,176,20.0,23.0,-999,-99.99,,,-99.99,,2013-02-13 13:42:00,
2013-02-13 08:52:00,75.0,-99.9,29.97,South,176,20.0,23.0,-999,-99.99,,,-99.99,,2013-02-13 13:52:00,
2013-02-13 09:01:00,75.0,-99.9,29.98,South,178,20.0,23.0,-999,-99.99,,,-99.99,,2013-02-13 14:01:00,
2013-02-13 09:11:00,75.0,-99.9,29.98,South,175,19.0,23.0,-999,-99.99,,,-99.99,,2013-02-13 14:11:00,
2013-02-13 09:22:00,75.0,-99.9,29.98,South,177,21.0,24.0,-999,-99.99,,,-99.99,,2013-02-13 14:22:00,
2013-02-13 09:32:00,76.0,-99.9,29.98,South,173,20.0,23.0,-999,-99.99,,,-99.99,,2013-02-13 14:32:00,
2013-02-13 09:42:00,75.0,-99.9,29.99,South,180,18.0,22.0,-999,-99.99,,,-99.99,,2013-02-13 14:42:00,
2013-02-13 09:52:00,75.0,-99.9,29.99,South,179,18.0,22.0,-999,-99.99,,,-99.99,,2013-02-13 14:52:00,
2013-02-13 10:02:00,75.0,-99.9,29.99,South,178,19.0,22.0,-999,-99.99,,,-99.99,,2013-02-13 15:02:00,
2013-02-13 10:11:00,75.0,-99.9,29.99,South,177,19.0,22.0,-999,-99.99,,,-99.99,,2013-02-13 15:11:00,
2013-02-13 10:22:00,75.0,-99.9,29.99,South,176,18.0,21.0,-999,-99.99,,,-99.99,,2013-02-13 15:22:00,
2013-02-13 10:32:00,76.0,-99.9,29.99,South,175,18.0,21.0,-999,-99.99,,,-99.99,,2013-02-13 15:32:00,
2013-02-13 10:42:00,76.0,-99.9,30.00,South,176,21.0,23.0,-999,-99.99,,,-99.99,,2013-02-13 15:42:00,
2013-02-13 10:52:00,76.0,-99.9,30.00,South,174,19.0,22.0,-999,-99.99,,,-99.99,,2013-02-13 15:52:00,
2013-02-13 11:02:00,76.0,-99.9,29.99,South,172,19.0,21.0,-999,-99.99,,,-99.99,,2013-02-13 16:02:00,
2013-02-13 11:12:00,76.0,-99.9,29.99,SSE,168,19.0,22.0,-999,-99.99,,,-99.99,,2013-02-13 16:12:00,
2013-02-13 11:21:00,76.0,-99.9,29.99,South,172,19.0,22.0,-999,-99.99,,,-99.99,,2013-02-13 16:21:00,
2013-02-13 11:32:00,76.0,-99.9,29.99,South,171,20.0,23.0,-999,-99.99,,,-99.99,,2013-02-13 16:32:00,
2013-02-13 11:42:00,76.0,-99.9,29.98,SSE,168,19.0,23.0,-999,-99.99,,,-99.99,,2013-02-13 16:42:00,
2013-02-13 11:52:00,76.0,-99.9,29.98,South,171,18.0,22.0,-999,-99.99,,,-99.99,,2013-02-13 16:52:00,
2013-02-13 12:02:00,76.0,-99.9,29.98,South,169,21.0,23.0,-999,-99.99,,,-99.99,,2013-02-13 17:02:00,
2013-02-13 12:11:00,76.0,-99.9,29.97,South,170,19.0,23.0,-999,-99.99,,,-99.99,,2013-02-13 17:11:00,
2013-02-13 12:21:00,76.0,-99.9,29.97,South,170,21.0,24.0,-999,-99.99,,,-99.99,,2013-02-13 17:21:00,
2013-02-13 12:32:00,76.0,-99.9,29.96,South,170,23.0,26.0,-999,-99.99,,,-99.99,,2013-02-13 17:32:00,
2013-02-13 12:42:00,76.0,-99.9,29.96,South,170,22.0,26.0,-999,-99.99,,,-99.99,,2013-02-13 17:42:00,
2013-02-13 12:52:00,76.0,-99.9,29.96,South,170,21.0,25.0,-999,-99.99,,,-99.99,,2013-02-13 17:52:00,
2013-02-13 13:02:00,76.0,-99.9,29.95,South,170,20.0,25.0,-999,-99.99,,,-99.99,,2013-02-13 18:02:00,
2013-02-13 13:11:00,76.0,-99.9,29.94,South,169,22.0,25.0,-999,-99.99,,,-99.99,,2013-02-13 18:11:00,
2013-02-13 13:23:00,76.0,-99.9,29.93,South,172,23.0,26.0,-999,-99.99,,,-99.99,,2013-02-13 18:23:00,
2013-02-13 13:32:00,76.0,-99.9,29.93,South,172,22.0,27.0,-999,-99.99,,,-99.99,,2013-02-13 18:32:00,
2013-02-13 13:42:00,76.0,-99.9,29.93,South,172,23.0,28.0,-999,-99.99,,,-99.99,,2013-02-13 18:42:00,
2013-02-13 13:52:00,76.0,-99.9,29.92,South,172,22.0,27.0,-999,-99.99,,,-99.99,,2013-02-13 18:52:00,
2013-02-13 14:01:00,76.0,-99.9,29.91,South,171,22.0,29.0,-999,-99.99,,,-99.99,,2013-02-13 19:01:00,
2013-02-13 14:11:00,76.0,-99.9,29.91,South,171,24.0,29.0,-999,-99.99,,,-99.99,,2013-02-13 19:11:00,
2013-02-13 14:21:00,76.0,-99.9,29.91,South,172,26.0,28.0,-999,-99.99,,,-99.99,,2013-02-13 19:21:00,
2013-02-13 14:32:00,76.0,-99.9,29.90,South,172,25.0,29.0,-999,-99.99,,,-99.99,,2013-02-13 19:32:00,
2013-02-13 14:42:00,76.0,-99.9,29.90,South,173,25.0,28.0,-999,-99.99,,,-99.99,,2013-02-13 19:42:00,
2013-02-13 14:52:00,76.0,-99.9,29.89,South,173,27.0,30.0,-999,-99.99,,,-99.99,,2013-02-13 19:52:00,
2013-02-13 15:02:00,76.0,-99.9,29.89,South,172,26.0,30.0,-999,-99.99,,,-99.99,,2013-02-13 20:02:00,
2013-02-13 15:11:00,76.0,-99.9,29.89,South,172,25.0,31.0,-999,-99.99,,,-99.99,,2013-02-13 20:11:00,
2013-02-13 15:22:00,76.0,-99.9,29.88,South,172,25.0,30.0,-999,-99.99,,,-99.99,,2013-02-13 20:22:00,
2013-02-13 15:32:00,76.0,-99.9,29.88,South,175,26.0,31.0,-999,-99.99,,,-99.99,,2013-02-13 20:32:00,
2013-02-13 15:42:00,76.0,-99.9,29.88,South,175,25.0,29.0,-999,-99.99,,,-99.99,,2013-02-13 20:42:00,
2013-02-13 15:52:00,76.0,-99.9,29.88,South,175,26.0,28.0,-999,-99.99,,,-99.99,,2013-02-13 20:52:00,
2013-02-13 16:02:00,76.0,-99.9,29.88,South,175,26.0,30.0,-999,-99.99,,,-99.99,,2013-02-13 21:02:00,
2013-02-13 16:11:00,76.0,-99.9,29.88,South,174,24.0,30.0,-999,-99.99,,,-99.99,,2013-02-13 21:11:00,
2013-02-13 16:22:00,76.0,-99.9,29.88,South,172,27.0,30.0,-999,-99.99,,,-99.99,,2013-02-13 21:22:00,
2013-02-13 16:32:00,76.0,-99.9,29.88,South,175,27.0,31.0,-999,-99.99,,,-99.99,,2013-02-13 21:32:00,
2013-02-13 16:43:00,76.0,-99.9,29.88,South,176,27.0,32.0,-999,-99.99,,,-99.99,,2013-02-13 21:43:00,
2013-02-13 16:52:00,76.0,-99.9,29.88,South,176,27.0,32.0,-999,-99.99,,,-99.99,,2013-02-13 21:52:00,
2013-02-13 17:02:00,76.0,-99.9,29.88,South,177,26.0,30.0,-999,-99.99,,,-99.99,,2013-02-13 22:02:00,
2013-02-13 17:11:00,76.0,-99.9,29.88,South,177,25.0,30.0,-999,-99.99,,,-99.99,,2013-02-13 22:11:00,
2013-02-13 17:21:00,76.0,-99.9,29.88,South,178,28.0,31.0,-999,-99.99,,,-99.99,,2013-02-13 22:21:00,
2013-02-13 17:32:00,76.0,-99.9,29.88,South,178,26.0,29.0,-999,-99.99,,,-99.99,,2013-02-13 22:32:00,
2013-02-13 17:42:00,76.0,-99.9,29.88,South,183,23.0,27.0,-999,-99.99,,,-99.99,,2013-02-13 22:42:00,
2013-02-13 17:52:00,76.0,-99.9,29.88,South,182,25.0,28.0,-999,-99.99,,,-99.99,,2013-02-13 22:52:00,
2013-02-13 18:02:00,76.0,-99.9,29.88,South,179,24.0,29.0,-999,-99.99,,,-99.99,,2013-02-13 23:02:00,
2013-02-13 18:12:00,76.0,-99.9,29.88,South,178,25.0,28.0,-999,-99.99,,,-99.99,,2013-02-13 23:12:00,
2013-02-13 18:22:00,76.0,-99.9,29.88,South,179,24.0,28.0,-999,-99.99,,,-99.99,,2013-02-13 23:22:00,
2013-02-13 18:32:00,75.0,-99.9,29.89,South,178,22.0,26.0,-999,-99.99,,,-99.99,,2013-02-13 23:32:00,
2013-02-13 18:42:00,76.0,-99.9,29.89,South,180,22.0,25.0,-999,-99.99,,,-99.99,,2013-02-13 23:42:00,
2013-02-13 18:53:00,76.0,-99.9,29.89,South,179,21.0,24.0,-999,-99.99,,,-99.99,,2013-02-13 23:53:00,
2013-02-13 19:02:00,76.0,-99.9,29.89,South,181,19.0,23.0,-999,-99.99,,,-99.99,,2013-02-14 00:02:00,
2013-02-13 19:12:00,76.0,-99.9,29.90,South,181,17.0,21.0,-999,-99.99,,,-99.99,,2013-02-14 00:12:00,
2013-02-13 19:22:00,76.0,-99.9,29.90,South,179,15.0,18.0,-999,-99.99,,,-99.99,,2013-02-14 00:22:00,
2013-02-13 19:32:00,76.0,-99.9,29.90,South,179,16.0,17.0,-999,-99.99,,,-99.99,,2013-02-14 00:32:00,
2013-02-13 19:43:00,76.0,-99.9,29.90,South,177,13.0,16.0,-999,-99.99,,,-99.99,,2013-02-14 00:43:00,
2013-02-13 19:52:00,76.0,-99.9,29.90,South,177,15.0,16.0,-999,-99.99,,,-99.99,,2013-02-14 00:52:00,
2013-02-13 20:01:00,76.0,-99.9,29.90,South,181,14.0,17.0,-999,-99.99,,,-99.99,,2013-02-14 01:01:00,
2013-02-13 20:11:00,76.0,-99.9,29.90,South,181,15.0,17.0,-999,-99.99,,,-99.99,,2013-02-14 01:11:00,
2013-02-13 20:22:00,76.0,-99.9,29.90,South,184,13.0,15.0,-999,-99.99,,,-99.99,,2013-02-14 01:22:00,
2013-02-13 20:32:00,77.0,-99.9,29.90,SSW,194,12.0,15.0,-999,-99.99,,,-99.99,,2013-02-14 01:32:00,
2013-02-13 20:42:00,78.0,-99.9,29.91,SSW,196,13.0,17.0,-999,-99.99,,,-99.99,,2013-02-14 01:42:00,
2013-02-13 20:52:00,78.0,-99.9,29.91,SSW,195,15.0,19.0,-999,-99.99,,,-99.99,,2013-02-14 01:52:00,
2013-02-13 21:02:00,77.0,-99.9,29.92,SSW,206,11.0,18.0,-999,-99.99,,,-99.99,,2013-02-14 02:02:00,
2013-02-13 21:11:00,77.0,-99.9,29.92,SSW,212,11.0,16.0,-999,-99.99,,,-99.99,,2013-02-14 02:11:00,
2013-02-13 21:21:00,77.0,-99.9,29.93,SW,221,9.0,14.0,-999,-99.99,,,-99.99,,2013-02-14 02:21:00,
2013-02-13 21:32:00,76.0,-99.9,29.93,SW,231,7.0,11.0,-999,-99.99,,,-99.99,,2013-02-14 02:32:00,
2013-02-13 21:42:00,76.0,-99.9,29.93,SW,231,7.0,11.0,-999,-99.99,,,-99.99,,2013-02-14 02:42:00,
2013-02-13 21:52:00,76.0,-99.9,29.93,SW,231,7.0,11.0,-999,-99.99,,,-99.99,,2013-02-14 02:52:00,
2013-02-13 22:02:00,75.0,-99.9,29.94,SW,221,9.0,12.0,-999,-99.99,,,-99.99,,2013-02-14 03:02:00,
2013-02-13 22:12:00,75.0,-99.9,29.95,SW,227,9.0,13.0,-999,-99.99,,,-99.99,,2013-02-14 03:12:00,
2013-02-13 22:22:00,75.0,-99.9,29.95,SW,234,6.0,10.0,-999,-99.99,,,-99.99,,2013-02-14 03:22:00,
2013-02-13 22:32:00,74.0,-99.9,29.95,SW,232,6.0,8.0,-999,-99.99,,,-99.99,,2013-02-14 03:32:00,
2013-02-13 22:42:00,74.0,-99.9,29.95,SW,234,5.0,7.0,-999,-99.99,,,-99.99,,2013-02-14 03:42:00,
2013-02-13 22:52:00,74.0,-99.9,29.95,SW,229,6.0,7.0,-999,-99.99,,,-99.99,,2013-02-14 03:52:00,
2013-02-13 23:01:00,74.0,-99.9,29.95,SSW,207,4.0,6.0,-999,-99.99,,,-99.99,,2013-02-14 04:01:00,
2013-02-13 23:12:00,74.0,-99.9,29.95,SSW,196,6.0,7.0,-999,-99.99,,,-99.99,,2013-02-14 04:12:00,
2013-02-13 23:21:00,74.0,-99.9,29.95,SSW,200,6.0,9.0,-999,-99.99,,,-99.99,,2013-02-14 04:21:00,
2013-02-13 23:32:00,74.0,-99.9,29.95,SSW,199,6.0,8.0,-999,-99.99,,,-99.99,,2013-02-14 04:32:00,
2013-02-13 23:42:00,74.0,-99.9,29.94,SSW,196,7.0,8.0,-999,-99.99,,,-99.99,,2013-02-14 04:42:00,
2013-02-13 23:52:00,74.0,-99.9,29.94,SSW,197,8.0,9.0,-999,-99.99,,,-99.99,,2013-02-14 04:52:00,